sensor_id;sensor_type;location;lat;lon;timestamp;P1;durP1;ratioP1;P2;durP2;ratioP2
64915;SDS011;51427;-27.442;153.014;2022-08-30T00:00:48;7.65;;;3.67;;
64915;SDS011;51427;-27.442;153.014;2022-08-30T00:03:29;6.72;;;3.58;;
64915;SDS011;51427;-27.442;153.014;2022-08-30T00:05:58;6.10;;;3.33;;
64915;SDS011;51427;-27.442;153.014;2022-08-30T00:08:26;5.57;;;3.00;;
64915;SDS011;51427;-27.442;153.014;2022-08-30T00:10:54;9.68;;;4.60;;
64915;SDS011;51427;-27.442;153.014;2022-08-30T00:13:21;8.27;;;3.78;;
64915;SDS011;51427;-27.442;153.014;2022-08-30T00:15:49;7.05;;;3.67;;
64915;SDS011;51427;-27.442;153.014;2022-08-30T00:18:17;7.13;;;3.22;;
64915;SDS011;51427;-27.442;153.014;2022-08-30T00:20:45;6.88;;;3.33;;
64915;SDS011;51427;-27.442;153.014;2022-08-30T00:23:15;8.40;;;3.15;;
64915;SDS011;51427;-27.442;153.014;2022-08-30T00:25:44;9.35;;;3.50;;
64915;SDS011;51427;-27.442;153.014;2022-08-30T00:28:11;6.82;;;3.88;;
64915;SDS011;51427;-27.442;153.014;2022-08-30T00:30:41;5.13;;;3.30;;
64915;SDS011;51427;-27.442;153.014;2022-08-30T00:33:09;11.30;;;3.72;;
64915;SDS011;51427;-27.442;153.014;2022-08-30T00:35:37;10.43;;;4.18;;
64915;SDS011;51427;-27.442;153.014;2022-08-30T00:38:08;8.02;;;4.28;;
64915;SDS011;51427;-27.442;153.014;2022-08-30T00:40:37;9.52;;;4.25;;
64915;SDS011;51427;-27.442;153.014;2022-08-30T00:43:07;8.52;;;4.32;;
64915;SDS011;51427;-27.442;153.014;2022-08-30T00:45:38;6.00;;;3.83;;
64915;SDS011;51427;-27.442;153.014;2022-08-30T00:48:06;9.48;;;4.57;;
64915;SDS011;51427;-27.442;153.014;2022-08-30T00:50:36;9.20;;;4.30;;
64915;SDS011;51427;-27.442;153.014;2022-08-30T00:53:28;7.13;;;5.00;;
64915;SDS011;51427;-27.442;153.014;2022-08-30T00:55:59;10.63;;;4.53;;
64915;SDS011;51427;-27.442;153.014;2022-08-30T00:58:28;8.35;;;3.90;;
64915;SDS011;51427;-27.442;153.014;2022-08-30T01:01:07;14.65;;;4.28;;
64915;SDS011;51427;-27.442;153.014;2022-08-30T01:03:35;7.80;;;3.95;;
64915;SDS011;51427;-27.442;153.014;2022-08-30T01:06:05;9.25;;;4.40;;
64915;SDS011;51427;-27.442;153.014;2022-08-30T01:08:33;8.90;;;3.97;;
64915;SDS011;51427;-27.442;153.014;2022-08-30T01:11:00;6.22;;;3.85;;
64915;SDS011;51427;-27.442;153.014;2022-08-30T01:13:29;7.47;;;3.90;;
64915;SDS011;51427;-27.442;153.014;2022-08-30T01:15:59;10.60;;;4.13;;
64915;SDS011;51427;-27.442;153.014;2022-08-30T01:18:27;8.45;;;3.78;;
64915;SDS011;51427;-27.442;153.014;2022-08-30T01:23:41;6.32;;;3.35;;
64915;SDS011;51427;-27.442;153.014;2022-08-30T01:26:11;7.10;;;3.58;;
64915;SDS011;51427;-27.442;153.014;2022-08-30T01:28:39;8.25;;;3.95;;
64915;SDS011;51427;-27.442;153.014;2022-08-30T01:31:07;8.02;;;4.10;;
64915;SDS011;51427;-27.442;153.014;2022-08-30T01:33:35;7.25;;;3.75;;
64915;SDS011;51427;-27.442;153.014;2022-08-30T01:36:04;6.63;;;3.40;;
64915;SDS011;51427;-27.442;153.014;2022-08-30T01:38:47;8.00;;;3.60;;
64915;SDS011;51427;-27.442;153.014;2022-08-30T01:41:21;6.45;;;3.58;;
64915;SDS011;51427;-27.442;153.014;2022-08-30T01:43:54;9.30;;;3.42;;
64915;SDS011;51427;-27.442;153.014;2022-08-30T01:46:25;5.97;;;3.03;;
64915;SDS011;51427;-27.442;153.014;2022-08-30T01:49:02;8.60;;;3.38;;
64915;SDS011;51427;-27.442;153.014;2022-08-30T01:51:35;9.90;;;4.00;;
64915;SDS011;51427;-27.442;153.014;2022-08-30T01:54:03;7.88;;;3.35;;
64915;SDS011;51427;-27.442;153.014;2022-08-30T01:56:30;3.50;;;3.08;;
64915;SDS011;51427;-27.442;153.014;2022-08-30T01:58:58;8.05;;;3.60;;
64915;SDS011;51427;-27.442;153.014;2022-08-30T02:01:26;7.85;;;3.55;;
64915;SDS011;51427;-27.442;153.014;2022-08-30T02:03:55;5.70;;;2.88;;
64915;SDS011;51427;-27.442;153.014;2022-08-30T02:06:22;5.65;;;2.88;;
64915;SDS011;51427;-27.442;153.014;2022-08-30T02:08:50;6.72;;;3.00;;
64915;SDS011;51427;-27.442;153.014;2022-08-30T02:11:18;7.85;;;3.15;;
64915;SDS011;51427;-27.442;153.014;2022-08-30T02:13:45;4.93;;;2.92;;
64915;SDS011;51427;-27.442;153.014;2022-08-30T02:16:15;6.47;;;3.08;;
64915;SDS011;51427;-27.442;153.014;2022-08-30T02:18:44;6.82;;;2.90;;
64915;SDS011;51427;-27.442;153.014;2022-08-30T02:21:11;4.45;;;2.92;;
64915;SDS011;51427;-27.442;153.014;2022-08-30T02:23:39;6.70;;;2.90;;
64915;SDS011;51427;-27.442;153.014;2022-08-30T02:26:07;7.13;;;2.67;;
64915;SDS011;51427;-27.442;153.014;2022-08-30T02:28:35;7.55;;;2.70;;
64915;SDS011;51427;-27.442;153.014;2022-08-30T02:31:03;7.07;;;3.30;;
64915;SDS011;51427;-27.442;153.014;2022-08-30T02:33:30;5.78;;;3.10;;
64915;SDS011;51427;-27.442;153.014;2022-08-30T02:35:57;4.95;;;2.78;;
64915;SDS011;51427;-27.442;153.014;2022-08-30T02:38:24;4.80;;;2.30;;
64915;SDS011;51427;-27.442;153.014;2022-08-30T02:40:52;5.63;;;2.50;;
64915;SDS011;51427;-27.442;153.014;2022-08-30T02:43:19;7.18;;;2.80;;
64915;SDS011;51427;-27.442;153.014;2022-08-30T02:45:46;6.00;;;3.38;;
64915;SDS011;51427;-27.442;153.014;2022-08-30T02:48:13;5.40;;;3.10;;
64915;SDS011;51427;-27.442;153.014;2022-08-30T02:50:41;7.25;;;4.22;;
64915;SDS011;51427;-27.442;153.014;2022-08-30T02:53:10;6.78;;;3.58;;
64915;SDS011;51427;-27.442;153.014;2022-08-30T02:55:38;6.53;;;3.08;;
64915;SDS011;51427;-27.442;153.014;2022-08-30T02:58:05;3.80;;;2.50;;
64915;SDS011;51427;-27.442;153.014;2022-08-30T03:00:33;9.50;;;7.18;;
64915;SDS011;51427;-27.442;153.014;2022-08-30T03:03:01;8.63;;;5.82;;
64915;SDS011;51427;-27.442;153.014;2022-08-30T03:05:29;4.47;;;2.75;;
64915;SDS011;51427;-27.442;153.014;2022-08-30T03:07:58;9.10;;;6.10;;
64915;SDS011;51427;-27.442;153.014;2022-08-30T03:10:26;4.65;;;2.90;;
64915;SDS011;51427;-27.442;153.014;2022-08-30T03:12:54;3.10;;;2.55;;
64915;SDS011;51427;-27.442;153.014;2022-08-30T03:15:22;4.55;;;2.20;;
64915;SDS011;51427;-27.442;153.014;2022-08-30T03:17:51;3.97;;;2.20;;
64915;SDS011;51427;-27.442;153.014;2022-08-30T03:20:19;5.43;;;2.10;;
64915;SDS011;51427;-27.442;153.014;2022-08-30T03:22:49;5.10;;;2.33;;
64915;SDS011;51427;-27.442;153.014;2022-08-30T03:25:17;5.65;;;2.20;;
64915;SDS011;51427;-27.442;153.014;2022-08-30T03:27:46;7.85;;;4.47;;
64915;SDS011;51427;-27.442;153.014;2022-08-30T03:30:15;3.20;;;2.40;;
64915;SDS011;51427;-27.442;153.014;2022-08-30T03:32:44;4.15;;;2.42;;
64915;SDS011;51427;-27.442;153.014;2022-08-30T03:35:12;6.78;;;3.00;;
64915;SDS011;51427;-27.442;153.014;2022-08-30T03:37:41;5.65;;;2.83;;
64915;SDS011;51427;-27.442;153.014;2022-08-30T03:40:10;5.10;;;2.63;;
64915;SDS011;51427;-27.442;153.014;2022-08-30T03:42:38;6.70;;;2.25;;
64915;SDS011;51427;-27.442;153.014;2022-08-30T03:45:06;5.80;;;2.30;;
64915;SDS011;51427;-27.442;153.014;2022-08-30T03:47:34;7.35;;;3.28;;
64915;SDS011;51427;-27.442;153.014;2022-08-30T03:50:03;5.70;;;2.72;;
64915;SDS011;51427;-27.442;153.014;2022-08-30T03:52:31;5.53;;;3.38;;
64915;SDS011;51427;-27.442;153.014;2022-08-30T03:54:58;4.07;;;3.03;;
64915;SDS011;51427;-27.442;153.014;2022-08-30T03:57:26;6.38;;;3.33;;
64915;SDS011;51427;-27.442;153.014;2022-08-30T03:59:53;4.93;;;2.85;;
64915;SDS011;51427;-27.442;153.014;2022-08-30T04:02:21;7.05;;;5.75;;
64915;SDS011;51427;-27.442;153.014;2022-08-30T04:04:48;13.75;;;10.23;;
64915;SDS011;51427;-27.442;153.014;2022-08-30T04:07:16;4.78;;;3.13;;
64915;SDS011;51427;-27.442;153.014;2022-08-30T04:09:44;2.85;;;2.13;;
64915;SDS011;51427;-27.442;153.014;2022-08-30T04:12:11;4.85;;;2.20;;
64915;SDS011;51427;-27.442;153.014;2022-08-30T04:14:39;5.25;;;2.22;;
64915;SDS011;51427;-27.442;153.014;2022-08-30T04:17:06;2.75;;;1.95;;
64915;SDS011;51427;-27.442;153.014;2022-08-30T04:19:33;2.42;;;1.90;;
64915;SDS011;51427;-27.442;153.014;2022-08-30T04:22:00;7.38;;;2.90;;
64915;SDS011;51427;-27.442;153.014;2022-08-30T04:24:29;5.18;;;2.72;;
64915;SDS011;51427;-27.442;153.014;2022-08-30T04:26:57;6.68;;;2.78;;
64915;SDS011;51427;-27.442;153.014;2022-08-30T04:29:24;6.32;;;2.75;;
64915;SDS011;51427;-27.442;153.014;2022-08-30T04:31:51;4.25;;;2.50;;
64915;SDS011;51427;-27.442;153.014;2022-08-30T04:34:19;6.25;;;2.88;;
64915;SDS011;51427;-27.442;153.014;2022-08-30T04:36:47;3.22;;;2.58;;
64915;SDS011;51427;-27.442;153.014;2022-08-30T04:39:16;5.78;;;2.47;;
64915;SDS011;51427;-27.442;153.014;2022-08-30T04:41:44;3.60;;;1.95;;
64915;SDS011;51427;-27.442;153.014;2022-08-30T04:44:11;9.68;;;6.18;;
64915;SDS011;51427;-27.442;153.014;2022-08-30T04:46:39;5.38;;;4.57;;
64915;SDS011;51427;-27.442;153.014;2022-08-30T04:49:07;6.82;;;4.78;;
64915;SDS011;51427;-27.442;153.014;2022-08-30T04:51:34;18.38;;;5.85;;
64915;SDS011;51427;-27.442;153.014;2022-08-30T04:54:01;9.25;;;4.20;;
64915;SDS011;51427;-27.442;153.014;2022-08-30T04:56:28;7.07;;;3.50;;
64915;SDS011;51427;-27.442;153.014;2022-08-30T04:58:56;6.85;;;3.03;;
64915;SDS011;51427;-27.442;153.014;2022-08-30T05:01:27;4.07;;;2.55;;
64915;SDS011;51427;-27.442;153.014;2022-08-30T05:03:56;4.32;;;2.28;;
64915;SDS011;51427;-27.442;153.014;2022-08-30T05:06:26;7.97;;;2.53;;
64915;SDS011;51427;-27.442;153.014;2022-08-30T05:08:55;5.07;;;2.50;;
64915;SDS011;51427;-27.442;153.014;2022-08-30T05:11:25;3.38;;;2.10;;
64915;SDS011;51427;-27.442;153.014;2022-08-30T05:13:54;6.40;;;2.40;;
64915;SDS011;51427;-27.442;153.014;2022-08-30T05:16:21;5.35;;;2.97;;
64915;SDS011;51427;-27.442;153.014;2022-08-30T05:18:49;7.22;;;2.88;;
64915;SDS011;51427;-27.442;153.014;2022-08-30T05:21:19;7.13;;;2.65;;
64915;SDS011;51427;-27.442;153.014;2022-08-30T05:23:55;3.95;;;2.60;;
64915;SDS011;51427;-27.442;153.014;2022-08-30T05:26:31;3.25;;;2.70;;
64915;SDS011;51427;-27.442;153.014;2022-08-30T05:29:00;5.72;;;2.90;;
64915;SDS011;51427;-27.442;153.014;2022-08-30T05:31:32;5.72;;;2.83;;
64915;SDS011;51427;-27.442;153.014;2022-08-30T05:34:01;6.07;;;2.95;;
64915;SDS011;51427;-27.442;153.014;2022-08-30T05:36:30;5.90;;;2.88;;
64915;SDS011;51427;-27.442;153.014;2022-08-30T05:39:01;8.02;;;2.80;;
64915;SDS011;51427;-27.442;153.014;2022-08-30T05:41:29;6.93;;;3.35;;
64915;SDS011;51427;-27.442;153.014;2022-08-30T05:43:57;4.88;;;2.70;;
64915;SDS011;51427;-27.442;153.014;2022-08-30T05:46:27;5.82;;;3.05;;
64915;SDS011;51427;-27.442;153.014;2022-08-30T05:48:58;5.47;;;2.80;;
64915;SDS011;51427;-27.442;153.014;2022-08-30T05:51:27;6.65;;;2.90;;
64915;SDS011;51427;-27.442;153.014;2022-08-30T05:53:57;4.95;;;2.63;;
64915;SDS011;51427;-27.442;153.014;2022-08-30T05:56:26;5.40;;;2.83;;
64915;SDS011;51427;-27.442;153.014;2022-08-30T05:59:00;4.53;;;2.90;;
64915;SDS011;51427;-27.442;153.014;2022-08-30T06:01:30;4.55;;;3.20;;
64915;SDS011;51427;-27.442;153.014;2022-08-30T06:04:00;6.22;;;3.15;;
64915;SDS011;51427;-27.442;153.014;2022-08-30T06:06:30;5.22;;;2.90;;
64915;SDS011;51427;-27.442;153.014;2022-08-30T06:08:59;5.47;;;3.47;;
64915;SDS011;51427;-27.442;153.014;2022-08-30T06:11:27;5.65;;;2.88;;
64915;SDS011;51427;-27.442;153.014;2022-08-30T06:13:55;8.52;;;3.25;;
64915;SDS011;51427;-27.442;153.014;2022-08-30T06:16:24;7.70;;;3.65;;
64915;SDS011;51427;-27.442;153.014;2022-08-30T06:18:53;7.30;;;3.63;;
64915;SDS011;51427;-27.442;153.014;2022-08-30T06:21:23;4.90;;;3.17;;
64915;SDS011;51427;-27.442;153.014;2022-08-30T06:23:53;9.07;;;3.42;;
64915;SDS011;51427;-27.442;153.014;2022-08-30T06:26:21;6.45;;;3.28;;
64915;SDS011;51427;-27.442;153.014;2022-08-30T06:28:50;4.20;;;3.13;;
64915;SDS011;51427;-27.442;153.014;2022-08-30T06:31:18;7.25;;;3.40;;
64915;SDS011;51427;-27.442;153.014;2022-08-30T06:33:48;4.28;;;3.40;;
64915;SDS011;51427;-27.442;153.014;2022-08-30T06:36:17;5.43;;;3.20;;
64915;SDS011;51427;-27.442;153.014;2022-08-30T06:38:50;7.20;;;4.18;;
64915;SDS011;51427;-27.442;153.014;2022-08-30T06:41:21;8.13;;;3.30;;
64915;SDS011;51427;-27.442;153.014;2022-08-30T06:43:50;8.88;;;3.58;;
64915;SDS011;51427;-27.442;153.014;2022-08-30T06:46:19;5.05;;;3.50;;
64915;SDS011;51427;-27.442;153.014;2022-08-30T06:48:48;6.85;;;3.10;;
64915;SDS011;51427;-27.442;153.014;2022-08-30T06:51:23;6.60;;;3.70;;
64915;SDS011;51427;-27.442;153.014;2022-08-30T06:53:52;6.22;;;3.38;;
64915;SDS011;51427;-27.442;153.014;2022-08-30T06:56:20;6.25;;;3.35;;
64915;SDS011;51427;-27.442;153.014;2022-08-30T06:58:48;6.72;;;3.38;;
64915;SDS011;51427;-27.442;153.014;2022-08-30T07:01:18;6.35;;;3.28;;
64915;SDS011;51427;-27.442;153.014;2022-08-30T07:03:48;4.93;;;3.28;;
64915;SDS011;51427;-27.442;153.014;2022-08-30T07:06:17;9.20;;;3.95;;
64915;SDS011;51427;-27.442;153.014;2022-08-30T07:08:46;7.32;;;4.25;;
64915;SDS011;51427;-27.442;153.014;2022-08-30T07:11:23;7.40;;;3.50;;
64915;SDS011;51427;-27.442;153.014;2022-08-30T07:13:59;5.50;;;3.45;;
64915;SDS011;51427;-27.442;153.014;2022-08-30T07:16:27;8.13;;;4.28;;
64915;SDS011;51427;-27.442;153.014;2022-08-30T07:18:55;8.48;;;4.63;;
64915;SDS011;51427;-27.442;153.014;2022-08-30T07:21:28;7.72;;;4.32;;
64915;SDS011;51427;-27.442;153.014;2022-08-30T07:24:00;7.35;;;4.65;;
64915;SDS011;51427;-27.442;153.014;2022-08-30T07:26:33;8.82;;;4.03;;
64915;SDS011;51427;-27.442;153.014;2022-08-30T07:29:03;8.38;;;4.00;;
64915;SDS011;51427;-27.442;153.014;2022-08-30T07:31:31;5.85;;;3.50;;
64915;SDS011;51427;-27.442;153.014;2022-08-30T07:34:01;6.57;;;3.88;;
64915;SDS011;51427;-27.442;153.014;2022-08-30T07:36:30;5.65;;;3.72;;
64915;SDS011;51427;-27.442;153.014;2022-08-30T07:38:58;9.55;;;4.88;;
64915;SDS011;51427;-27.442;153.014;2022-08-30T07:41:27;5.65;;;4.13;;
64915;SDS011;51427;-27.442;153.014;2022-08-30T07:44:00;9.25;;;6.15;;
64915;SDS011;51427;-27.442;153.014;2022-08-30T07:46:28;9.48;;;5.30;;
64915;SDS011;51427;-27.442;153.014;2022-08-30T07:48:57;7.72;;;4.47;;
64915;SDS011;51427;-27.442;153.014;2022-08-30T07:51:27;6.82;;;4.60;;
64915;SDS011;51427;-27.442;153.014;2022-08-30T07:53:55;6.55;;;4.40;;
64915;SDS011;51427;-27.442;153.014;2022-08-30T07:56:23;10.60;;;4.50;;
64915;SDS011;51427;-27.442;153.014;2022-08-30T07:58:51;8.95;;;5.00;;
64915;SDS011;51427;-27.442;153.014;2022-08-30T08:01:20;5.28;;;4.68;;
64915;SDS011;51427;-27.442;153.014;2022-08-30T08:03:48;8.55;;;4.38;;
64915;SDS011;51427;-27.442;153.014;2022-08-30T08:06:17;8.43;;;4.93;;
64915;SDS011;51427;-27.442;153.014;2022-08-30T08:08:46;8.75;;;4.50;;
64915;SDS011;51427;-27.442;153.014;2022-08-30T08:11:18;5.30;;;4.75;;
64915;SDS011;51427;-27.442;153.014;2022-08-30T08:13:49;8.95;;;5.25;;
64915;SDS011;51427;-27.442;153.014;2022-08-30T08:16:18;6.78;;;4.57;;
64915;SDS011;51427;-27.442;153.014;2022-08-30T08:18:46;7.35;;;4.10;;
64915;SDS011;51427;-27.442;153.014;2022-08-30T08:21:14;6.60;;;4.63;;
64915;SDS011;51427;-27.442;153.014;2022-08-30T08:23:42;6.85;;;4.40;;
64915;SDS011;51427;-27.442;153.014;2022-08-30T08:26:10;6.60;;;5.10;;
64915;SDS011;51427;-27.442;153.014;2022-08-30T08:28:37;7.35;;;4.10;;
64915;SDS011;51427;-27.442;153.014;2022-08-30T08:31:15;13.00;;;9.70;;
64915;SDS011;51427;-27.442;153.014;2022-08-30T08:33:44;8.68;;;6.10;;
64915;SDS011;51427;-27.442;153.014;2022-08-30T08:36:13;7.45;;;6.40;;
64915;SDS011;51427;-27.442;153.014;2022-08-30T08:38:41;7.28;;;5.78;;
64915;SDS011;51427;-27.442;153.014;2022-08-30T08:44:24;8.75;;;6.47;;
64915;SDS011;51427;-27.442;153.014;2022-08-30T08:47:15;24.35;;;17.05;;
64915;SDS011;51427;-27.442;153.014;2022-08-30T08:49:50;70.47;;;57.17;;
64915;SDS011;51427;-27.442;153.014;2022-08-30T08:53:03;149.10;;;134.77;;
64915;SDS011;51427;-27.442;153.014;2022-08-30T08:55:30;161.77;;;117.63;;
64915;SDS011;51427;-27.442;153.014;2022-08-30T08:57:58;234.52;;;210.50;;
64915;SDS011;51427;-27.442;153.014;2022-08-30T09:00:26;214.18;;;185.90;;
64915;SDS011;51427;-27.442;153.014;2022-08-30T09:02:59;148.73;;;117.72;;
64915;SDS011;51427;-27.442;153.014;2022-08-30T09:05:30;111.63;;;96.28;;
64915;SDS011;51427;-27.442;153.014;2022-08-30T09:08:13;20.27;;;17.95;;
64915;SDS011;51427;-27.442;153.014;2022-08-30T09:11:00;12.90;;;9.07;;
64915;SDS011;51427;-27.442;153.014;2022-08-30T09:13:30;15.45;;;12.05;;
64915;SDS011;51427;-27.442;153.014;2022-08-30T09:15:58;15.40;;;10.80;;
64915;SDS011;51427;-27.442;153.014;2022-08-30T09:18:46;12.60;;;9.65;;
64915;SDS011;51427;-27.442;153.014;2022-08-30T09:21:19;11.45;;;7.28;;
64915;SDS011;51427;-27.442;153.014;2022-08-30T09:23:53;8.68;;;5.90;;
64915;SDS011;51427;-27.442;153.014;2022-08-30T09:26:28;9.85;;;5.72;;
64915;SDS011;51427;-27.442;153.014;2022-08-30T09:29:01;9.43;;;6.00;;
64915;SDS011;51427;-27.442;153.014;2022-08-30T09:31:44;10.40;;;6.13;;
64915;SDS011;51427;-27.442;153.014;2022-08-30T09:34:17;7.97;;;5.30;;
64915;SDS011;51427;-27.442;153.014;2022-08-30T09:36:47;8.38;;;5.45;;
64915;SDS011;51427;-27.442;153.014;2022-08-30T09:39:17;7.03;;;5.57;;
64915;SDS011;51427;-27.442;153.014;2022-08-30T09:41:47;8.75;;;6.05;;
64915;SDS011;51427;-27.442;153.014;2022-08-30T09:46:56;8.98;;;6.95;;
64915;SDS011;51427;-27.442;153.014;2022-08-30T09:58:11;9.63;;;6.00;;
64915;SDS011;51427;-27.442;153.014;2022-08-30T10:01:28;8.75;;;5.93;;
64915;SDS011;51427;-27.442;153.014;2022-08-30T10:11:51;9.00;;;5.80;;
64915;SDS011;51427;-27.442;153.014;2022-08-30T10:17:26;11.40;;;6.00;;
64915;SDS011;51427;-27.442;153.014;2022-08-30T10:20:18;11.32;;;6.03;;
64915;SDS011;51427;-27.442;153.014;2022-08-30T10:23:11;8.18;;;5.70;;
64915;SDS011;51427;-27.442;153.014;2022-08-30T10:28:53;9.70;;;6.47;;
64915;SDS011;51427;-27.442;153.014;2022-08-30T10:31:46;7.72;;;6.43;;
64915;SDS011;51427;-27.442;153.014;2022-08-30T10:38:02;17.85;;;11.63;;
64915;SDS011;51427;-27.442;153.014;2022-08-30T10:40:31;16.20;;;11.07;;
64915;SDS011;51427;-27.442;153.014;2022-08-30T10:43:28;9.02;;;6.70;;
64915;SDS011;51427;-27.442;153.014;2022-08-30T10:46:02;9.95;;;6.25;;
64915;SDS011;51427;-27.442;153.014;2022-08-30T10:51:08;11.02;;;6.50;;
64915;SDS011;51427;-27.442;153.014;2022-08-30T10:54:22;9.25;;;5.90;;
64915;SDS011;51427;-27.442;153.014;2022-08-30T10:56:59;23.67;;;13.40;;
64915;SDS011;51427;-27.442;153.014;2022-08-30T10:59:27;8.35;;;6.55;;
64915;SDS011;51427;-27.442;153.014;2022-08-30T11:02:10;9.50;;;6.80;;
64915;SDS011;51427;-27.442;153.014;2022-08-30T11:07:23;7.35;;;5.68;;
64915;SDS011;51427;-27.442;153.014;2022-08-30T11:12:53;9.93;;;7.35;;
64915;SDS011;51427;-27.442;153.014;2022-08-30T11:18:22;10.18;;;6.55;;
64915;SDS011;51427;-27.442;153.014;2022-08-30T11:20:52;8.40;;;6.60;;
64915;SDS011;51427;-27.442;153.014;2022-08-30T11:23:40;10.45;;;6.30;;
64915;SDS011;51427;-27.442;153.014;2022-08-30T11:31:56;9.50;;;6.05;;
64915;SDS011;51427;-27.442;153.014;2022-08-30T11:39:59;11.38;;;7.35;;
64915;SDS011;51427;-27.442;153.014;2022-08-30T11:42:36;11.10;;;6.88;;
64915;SDS011;51427;-27.442;153.014;2022-08-30T12:01:15;7.70;;;6.10;;
64915;SDS011;51427;-27.442;153.014;2022-08-30T12:06:46;8.25;;;5.75;;
64915;SDS011;51427;-27.442;153.014;2022-08-30T12:11:54;8.50;;;6.43;;
64915;SDS011;51427;-27.442;153.014;2022-08-30T12:14:44;9.98;;;7.50;;
64915;SDS011;51427;-27.442;153.014;2022-08-30T12:20:45;9.73;;;6.60;;
64915;SDS011;51427;-27.442;153.014;2022-08-30T12:23:19;9.40;;;6.35;;
64915;SDS011;51427;-27.442;153.014;2022-08-30T12:26:12;8.65;;;6.13;;
64915;SDS011;51427;-27.442;153.014;2022-08-30T12:28:43;11.48;;;6.20;;
64915;SDS011;51427;-27.442;153.014;2022-08-30T12:31:18;12.07;;;6.93;;
64915;SDS011;51427;-27.442;153.014;2022-08-30T12:33:54;10.90;;;6.40;;
64915;SDS011;51427;-27.442;153.014;2022-08-30T12:36:35;9.70;;;6.50;;
64915;SDS011;51427;-27.442;153.014;2022-08-30T12:39:10;9.18;;;6.25;;
64915;SDS011;51427;-27.442;153.014;2022-08-30T12:41:43;9.98;;;6.38;;
64915;SDS011;51427;-27.442;153.014;2022-08-30T12:44:13;9.38;;;6.13;;
64915;SDS011;51427;-27.442;153.014;2022-08-30T12:46:43;9.98;;;6.20;;
64915;SDS011;51427;-27.442;153.014;2022-08-30T12:49:15;8.95;;;6.47;;
64915;SDS011;51427;-27.442;153.014;2022-08-30T12:51:43;8.98;;;6.10;;
64915;SDS011;51427;-27.442;153.014;2022-08-30T12:54:13;9.13;;;6.38;;
64915;SDS011;51427;-27.442;153.014;2022-08-30T12:57:07;9.63;;;6.63;;
64915;SDS011;51427;-27.442;153.014;2022-08-30T12:59:47;6.97;;;6.03;;
64915;SDS011;51427;-27.442;153.014;2022-08-30T13:02:19;8.10;;;5.55;;
64915;SDS011;51427;-27.442;153.014;2022-08-30T13:04:52;8.65;;;6.72;;
64915;SDS011;51427;-27.442;153.014;2022-08-30T13:10:02;8.52;;;6.47;;
64915;SDS011;51427;-27.442;153.014;2022-08-30T13:12:33;11.68;;;6.57;;
64915;SDS011;51427;-27.442;153.014;2022-08-30T13:15:10;10.52;;;6.47;;
64915;SDS011;51427;-27.442;153.014;2022-08-30T13:17:45;10.07;;;6.22;;
64915;SDS011;51427;-27.442;153.014;2022-08-30T13:25:34;9.80;;;5.88;;
64915;SDS011;51427;-27.442;153.014;2022-08-30T13:28:05;8.40;;;6.00;;
64915;SDS011;51427;-27.442;153.014;2022-08-30T13:30:33;9.60;;;6.50;;
64915;SDS011;51427;-27.442;153.014;2022-08-30T13:33:01;11.30;;;6.35;;
64915;SDS011;51427;-27.442;153.014;2022-08-30T13:35:29;10.27;;;6.95;;
64915;SDS011;51427;-27.442;153.014;2022-08-30T13:37:58;7.95;;;5.35;;
64915;SDS011;51427;-27.442;153.014;2022-08-30T13:40:29;11.90;;;5.45;;
64915;SDS011;51427;-27.442;153.014;2022-08-30T13:42:57;12.40;;;6.10;;
64915;SDS011;51427;-27.442;153.014;2022-08-30T13:45:25;7.75;;;6.10;;
64915;SDS011;51427;-27.442;153.014;2022-08-30T13:47:53;7.90;;;6.32;;
64915;SDS011;51427;-27.442;153.014;2022-08-30T13:50:21;6.97;;;5.70;;
64915;SDS011;51427;-27.442;153.014;2022-08-30T13:52:49;7.75;;;6.13;;
64915;SDS011;51427;-27.442;153.014;2022-08-30T13:55:17;8.55;;;6.50;;
64915;SDS011;51427;-27.442;153.014;2022-08-30T13:57:45;9.07;;;6.70;;
64915;SDS011;51427;-27.442;153.014;2022-08-30T14:00:15;9.20;;;6.78;;
64915;SDS011;51427;-27.442;153.014;2022-08-30T14:02:45;9.35;;;6.07;;
64915;SDS011;51427;-27.442;153.014;2022-08-30T14:05:13;8.75;;;6.53;;
64915;SDS011;51427;-27.442;153.014;2022-08-30T14:07:41;11.25;;;6.93;;
64915;SDS011;51427;-27.442;153.014;2022-08-30T14:10:09;8.55;;;6.15;;
64915;SDS011;51427;-27.442;153.014;2022-08-30T14:12:38;8.07;;;6.25;;
64915;SDS011;51427;-27.442;153.014;2022-08-30T14:15:06;10.63;;;5.95;;
64915;SDS011;51427;-27.442;153.014;2022-08-30T14:17:34;10.57;;;6.47;;
64915;SDS011;51427;-27.442;153.014;2022-08-30T14:20:01;8.70;;;6.78;;
64915;SDS011;51427;-27.442;153.014;2022-08-30T14:22:29;8.18;;;6.10;;
64915;SDS011;51427;-27.442;153.014;2022-08-30T14:24:56;8.98;;;6.03;;
64915;SDS011;51427;-27.442;153.014;2022-08-30T14:27:26;6.53;;;5.60;;
64915;SDS011;51427;-27.442;153.014;2022-08-30T14:29:55;8.13;;;5.80;;
64915;SDS011;51427;-27.442;153.014;2022-08-30T14:32:23;10.07;;;6.93;;
64915;SDS011;51427;-27.442;153.014;2022-08-30T14:34:51;8.38;;;5.93;;
64915;SDS011;51427;-27.442;153.014;2022-08-30T14:37:18;8.60;;;6.38;;
64915;SDS011;51427;-27.442;153.014;2022-08-30T14:39:46;8.38;;;6.63;;
64915;SDS011;51427;-27.442;153.014;2022-08-30T14:42:13;8.02;;;6.72;;
64915;SDS011;51427;-27.442;153.014;2022-08-30T14:44:41;8.23;;;6.30;;
64915;SDS011;51427;-27.442;153.014;2022-08-30T14:47:09;7.00;;;5.95;;
64915;SDS011;51427;-27.442;153.014;2022-08-30T14:49:37;8.95;;;6.53;;
64915;SDS011;51427;-27.442;153.014;2022-08-30T14:52:04;9.45;;;6.63;;
64915;SDS011;51427;-27.442;153.014;2022-08-30T14:54:32;9.55;;;6.47;;
64915;SDS011;51427;-27.442;153.014;2022-08-30T14:57:00;8.35;;;6.25;;
64915;SDS011;51427;-27.442;153.014;2022-08-30T14:59:28;10.60;;;6.38;;
64915;SDS011;51427;-27.442;153.014;2022-08-30T15:01:56;9.98;;;6.82;;
64915;SDS011;51427;-27.442;153.014;2022-08-30T15:04:23;9.13;;;5.95;;
64915;SDS011;51427;-27.442;153.014;2022-08-30T15:06:51;8.93;;;6.57;;
64915;SDS011;51427;-27.442;153.014;2022-08-30T15:09:20;7.68;;;6.03;;
64915;SDS011;51427;-27.442;153.014;2022-08-30T15:11:49;9.38;;;6.63;;
64915;SDS011;51427;-27.442;153.014;2022-08-30T15:14:18;10.27;;;7.65;;
64915;SDS011;51427;-27.442;153.014;2022-08-30T15:16:46;8.10;;;6.15;;
64915;SDS011;51427;-27.442;153.014;2022-08-30T15:19:15;10.93;;;7.43;;
64915;SDS011;51427;-27.442;153.014;2022-08-30T15:21:44;8.77;;;5.72;;
64915;SDS011;51427;-27.442;153.014;2022-08-30T15:24:14;9.13;;;6.57;;
64915;SDS011;51427;-27.442;153.014;2022-08-30T15:26:43;9.48;;;6.18;;
64915;SDS011;51427;-27.442;153.014;2022-08-30T15:29:11;7.68;;;6.80;;
64915;SDS011;51427;-27.442;153.014;2022-08-30T15:31:41;8.30;;;6.38;;
64915;SDS011;51427;-27.442;153.014;2022-08-30T15:34:11;7.68;;;6.50;;
64915;SDS011;51427;-27.442;153.014;2022-08-30T15:36:41;9.52;;;6.78;;
64915;SDS011;51427;-27.442;153.014;2022-08-30T15:39:10;8.02;;;6.00;;
64915;SDS011;51427;-27.442;153.014;2022-08-30T15:41:39;8.60;;;6.28;;
64915;SDS011;51427;-27.442;153.014;2022-08-30T15:44:08;8.02;;;6.25;;
64915;SDS011;51427;-27.442;153.014;2022-08-30T15:46:37;8.80;;;6.60;;
64915;SDS011;51427;-27.442;153.014;2022-08-30T15:49:11;9.40;;;6.32;;
64915;SDS011;51427;-27.442;153.014;2022-08-30T15:51:41;7.88;;;6.68;;
64915;SDS011;51427;-27.442;153.014;2022-08-30T15:54:12;9.15;;;6.68;;
64915;SDS011;51427;-27.442;153.014;2022-08-30T15:56:44;9.82;;;6.55;;